Time;durP1;ratioP1;P1;durP2;ratioP2;P2;SDS_P1;SDS_P2;PMS_P1;PMS_P2;Temp;Humidity;BMP_temperature;BMP_pressure;BME280_temperature;BME280_humidity;BME280_pressure;Samples;Min_cycle;Max_cycle;Signal;HPM_P1;HPM_P2
2023/08/16 00:01:00;;;;;;;17.23;14.75;;;;;;;;;;6254663;27;20185;-64
2023/08/16 00:04:02;;;;;;;15.73;13.75;;;;;;;;;;6227177;28;20774;-65
2023/08/16 00:07:04;;;;;;;17.90;16.20;;;;;;;;;;6257650;27;20053;-64
2023/08/16 00:10:11;;;;;;;16.40;14.80;;;;;;;;;;6227056;28;20145;-63
2023/08/16 00:13:13;;;;;;;18.05;16.25;;;;;;;;;;6238925;27;20098;-64
2023/08/16 00:16:15;;;;;;;17.52;14.55;;;;;;;;;;6222218;28;20048;-64
2023/08/16 00:19:17;;;;;;;16.05;14.40;;;;;;;;;;6232362;27;20056;-65
2023/08/16 00:22:19;;;;;;;15.95;14.35;;;;;;;;;;6228862;28;20049;-64
2023/08/16 00:25:25;;;;;;;17.67;15.88;;;;;;;;;;6238391;28;20046;-64
2023/08/16 00:28:27;;;;;;;17.55;15.85;;;;;;;;;;6232700;28;20945;-63
2023/08/16 00:31:29;;;;;;;17.77;15.20;;;;;;;;;;6251858;28;20057;-64
2023/08/16 00:34:31;;;;;;;14.15;11.25;;;;;;;;;;6229544;28;20455;-65
2023/08/16 00:37:33;;;;;;;16.58;14.80;;;;;;;;;;6226956;28;20052;-64
2023/08/16 00:40:35;;;;;;;16.60;14.82;;;;;;;;;;6232234;28;20056;-65
2023/08/16 00:43:38;;;;;;;16.60;14.77;;;;;;;;;;6211580;28;20056;-64
2023/08/16 00:46:40;;;;;;;17.88;14.48;;;;;;;;;;6260378;28;20054;-64
2023/08/16 00:49:43;;;;;;;17.70;15.82;;;;;;;;;;6241529;28;20049;-64
2023/08/16 00:52:46;;;;;;;19.88;15.35;;;;;;;;;;6236615;28;20119;-65
2023/08/16 00:55:49;;;;;;;14.35;12.10;;;;;;;;;;6234917;28;20523;-63
2023/08/16 00:58:51;;;;;;;16.70;15.10;;;;;;;;;;6213967;27;20050;-63
2023/08/16 01:01:54;;;;;;;16.48;13.90;;;;;;;;;;6236202;28;20074;-64
2023/08/16 01:04:56;;;;;;;15.77;14.18;;;;;;;;;;6225496;28;20095;-64
2023/08/16 01:07:59;;;;;;;18.25;16.30;;;;;;;;;;6226157;28;20042;-64
2023/08/16 01:11:34;;;;;;;16.42;14.73;;;;;;;;;;6309962;27;20043;-65
2023/08/16 01:14:52;;;;;;;19.73;17.70;;;;;;;;;;6221402;28;20083;-64
2023/08/16 01:17:55;;;;;;;18.02;16.13;;;;;;;;;;6234656;27;20136;-64
2023/08/16 01:20:57;;;;;;;17.48;15.35;;;;;;;;;;6241830;27;20045;-64
2023/08/16 01:24:06;;;;;;;17.08;14.45;;;;;;;;;;6226610;27;20053;-63
2023/08/16 01:27:10;;;;;;;17.75;14.88;;;;;;;;;;6231555;27;20082;-64
2023/08/16 01:30:13;;;;;;;18.77;16.60;;;;;;;;;;6230812;28;20054;-64
2023/08/16 01:33:15;;;;;;;17.65;15.85;;;;;;;;;;6228454;28;20041;-64
2023/08/16 01:36:19;;;;;;;19.40;15.88;;;;;;;;;;6251674;27;20074;-65
2023/08/16 01:39:21;;;;;;;18.42;16.63;;;;;;;;;;6236895;28;20124;-65
2023/08/16 01:42:24;;;;;;;20.55;16.17;;;;;;;;;;6232207;28;20138;-65
2023/08/16 01:45:26;;;;;;;19.05;16.88;;;;;;;;;;6236730;27;20941;-63
2023/08/16 01:48:30;;;;;;;17.55;15.75;;;;;;;;;;6209899;28;20056;-64
2023/08/16 01:51:32;;;;;;;18.15;15.68;;;;;;;;;;6226363;27;20043;-64
2023/08/16 01:54:34;;;;;;;17.73;15.02;;;;;;;;;;6234833;28;20058;-64
2023/08/16 01:57:38;;;;;;;17.73;15.88;;;;;;;;;;6269692;27;20099;-64
2023/08/16 02:00:40;;;;;;;17.85;16.02;;;;;;;;;;6233706;27;20057;-63
2023/08/16 02:03:42;;;;;;;17.05;15.32;;;;;;;;;;6261668;27;20081;-64
2023/08/16 02:06:44;;;;;;;19.73;17.80;;;;;;;;;;6250884;27;20104;-64
2023/08/16 02:09:46;;;;;;;17.40;15.60;;;;;;;;;;6236738;28;20117;-64
2023/08/16 02:12:48;;;;;;;17.73;16.02;;;;;;;;;;6243260;27;20057;-65
2023/08/16 02:16:00;;;;;;;17.80;15.63;;;;;;;;;;6222617;28;20057;-65
2023/08/16 02:19:03;;;;;;;19.58;16.77;;;;;;;;;;6220277;28;20045;-64
2023/08/16 02:22:05;;;;;;;19.33;17.05;;;;;;;;;;6244102;27;20080;-64
2023/08/16 02:25:08;;;;;;;19.88;16.75;;;;;;;;;;6232817;27;20042;-63
2023/08/16 02:28:10;;;;;;;16.77;15.07;;;;;;;;;;6254753;27;20037;-64
2023/08/16 02:31:12;;;;;;;19.25;17.23;;;;;;;;;;6235018;28;20064;-63
2023/08/16 02:34:14;;;;;;;18.88;16.92;;;;;;;;;;6253722;27;20331;-63
2023/08/16 02:37:17;;;;;;;22.00;16.60;;;;;;;;;;6232938;27;20053;-63
2023/08/16 02:40:19;;;;;;;20.63;14.88;;;;;;;;;;6213235;28;20050;-63
2023/08/16 02:43:21;;;;;;;21.33;13.93;;;;;;;;;;6233394;27;20105;-64
2023/08/16 02:46:23;;;;;;;19.67;16.88;;;;;;;;;;6242172;27;20057;-64
2023/08/16 02:49:25;;;;;;;27.73;16.58;;;;;;;;;;6211852;28;20181;-64
2023/08/16 02:52:28;;;;;;;16.90;14.77;;;;;;;;;;6240334;27;20049;-64
2023/08/16 02:55:30;;;;;;;16.08;13.88;;;;;;;;;;6222446;28;20840;-64
2023/08/16 02:58:32;;;;;;;17.33;15.13;;;;;;;;;;6233173;28;20049;-64
2023/08/16 03:01:34;;;;;;;20.52;15.50;;;;;;;;;;6230669;28;20045;-64
2023/08/16 03:04:39;;;;;;;19.23;17.10;;;;;;;;;;6235416;27;20058;-63
2023/08/16 03:07:41;;;;;;;21.88;15.95;;;;;;;;;;6256146;27;20054;-63
2023/08/16 03:10:43;;;;;;;17.42;15.63;;;;;;;;;;6237802;27;20554;-64
2023/08/16 03:13:45;;;;;;;17.27;15.30;;;;;;;;;;6225884;28;20053;-65
2023/08/16 03:16:48;;;;;;;16.90;14.82;;;;;;;;;;6238361;27;20060;-64
2023/08/16 03:19:51;;;;;;;17.85;15.57;;;;;;;;;;6259084;27;20626;-64
2023/08/16 03:22:53;;;;;;;18.23;16.00;;;;;;;;;;6248831;27;20050;-64
2023/08/16 03:25:55;;;;;;;21.65;16.27;;;;;;;;;;6215236;28;20053;-64
2023/08/16 03:41:59;;;;;;;18.40;12.57;;;;;;;;;;6353542;27;20735;-70
2023/08/16 03:45:04;;;;;;;17.35;13.80;;;;;;;;;;6315388;28;20123;-70
2023/08/16 03:48:06;;;;;;;14.77;11.90;;;;;;;;;;6319624;28;20537;-69
2023/08/16 03:51:08;;;;;;;18.17;12.95;;;;;;;;;;6333601;28;20051;-69
2023/08/16 03:54:10;;;;;;;17.10;12.27;;;;;;;;;;6318500;28;20051;-69
2023/08/16 03:57:13;;;;;;;14.02;11.40;;;;;;;;;;6319651;28;20048;-68
2023/08/16 04:00:16;;;;;;;17.60;12.35;;;;;;;;;;6314734;28;20127;-69
2023/08/16 04:03:18;;;;;;;15.50;12.13;;;;;;;;;;6332574;28;20047;-69
2023/08/16 04:06:20;;;;;;;16.60;11.32;;;;;;;;;;6331908;28;20185;-69
2023/08/16 04:09:23;;;;;;;15.13;11.82;;;;;;;;;;6301939;28;20054;-69
2023/08/16 04:12:27;;;;;;;13.95;11.48;;;;;;;;;;6329424;28;20052;-69
2023/08/16 04:15:29;;;;;;;18.30;13.90;;;;;;;;;;6295192;28;20040;-69
2023/08/16 04:18:32;;;;;;;18.45;14.00;;;;;;;;;;6330969;28;20147;-70
2023/08/16 04:21:34;;;;;;;18.58;12.90;;;;;;;;;;6314744;28;20035;-70
2023/08/16 04:24:38;;;;;;;20.60;14.60;;;;;;;;;;6330601;28;20046;-70
2023/08/16 04:27:41;;;;;;;18.05;14.38;;;;;;;;;;6332129;28;20054;-70
2023/08/16 04:30:43;;;;;;;19.23;15.30;;;;;;;;;;6312235;28;20558;-70
2023/08/16 04:33:46;;;;;;;18.80;14.32;;;;;;;;;;6320123;28;20092;-69
2023/08/16 04:36:48;;;;;;;19.23;17.23;;;;;;;;;;6314265;28;20084;-69
2023/08/16 04:39:52;;;;;;;18.42;14.95;;;;;;;;;;6314353;28;20051;-69
2023/08/16 04:42:54;;;;;;;18.42;14.65;;;;;;;;;;6296930;28;20185;-69
2023/08/16 04:45:57;;;;;;;21.70;13.88;;;;;;;;;;6298696;28;20124;-70
2023/08/16 04:48:59;;;;;;;20.00;14.90;;;;;;;;;;6314824;28;20063;-69
2023/08/16 04:52:02;;;;;;;19.27;15.45;;;;;;;;;;6295886;28;20534;-68
2023/08/16 04:55:05;;;;;;;18.80;14.13;;;;;;;;;;6305741;28;20059;-69
2023/08/16 04:58:09;;;;;;;17.65;14.07;;;;;;;;;;6298885;28;20656;-69
2023/08/16 05:01:19;;;;;;;16.95;14.18;;;;;;;;;;6294009;28;20047;-68
2023/08/16 05:04:22;;;;;;;22.10;15.07;;;;;;;;;;6295118;28;20075;-69
2023/08/16 05:07:25;;;;;;;19.30;14.95;;;;;;;;;;6314205;28;20035;-69
2023/08/16 05:10:27;;;;;;;18.90;14.18;;;;;;;;;;6312335;28;20044;-69
2023/08/16 05:13:29;;;;;;;17.67;13.77;;;;;;;;;;6313949;28;20078;-70
2023/08/16 05:16:31;;;;;;;20.48;15.25;;;;;;;;;;6313370;28;20628;-70
2023/08/16 05:19:34;;;;;;;17.60;14.80;;;;;;;;;;6313819;28;20040;-69
2023/08/16 05:22:38;;;;;;;18.55;14.05;;;;;;;;;;6294344;28;20044;-69
2023/08/16 05:25:40;;;;;;;21.58;16.45;;;;;;;;;;6313089;28;20040;-71
2023/08/16 05:28:42;;;;;;;20.20;14.68;;;;;;;;;;6294878;28;20048;-69
2023/08/16 05:31:44;;;;;;;20.83;15.75;;;;;;;;;;6277419;28;20048;-70
2023/08/16 05:34:46;;;;;;;22.58;15.70;;;;;;;;;;6293936;28;20051;-70
2023/08/16 05:37:50;;;;;;;21.00;16.50;;;;;;;;;;6258540;28;20070;-71
2023/08/16 05:40:53;;;;;;;22.08;16.48;;;;;;;;;;6310048;28;20104;-70
2023/08/16 05:43:55;;;;;;;19.40;16.30;;;;;;;;;;6314179;28;20044;-71
2023/08/16 05:46:57;;;;;;;20.30;14.55;;;;;;;;;;6292626;28;20656;-71
2023/08/16 05:50:00;;;;;;;19.60;15.15;;;;;;;;;;6310322;28;20582;-70
2023/08/16 05:53:03;;;;;;;17.77;14.52;;;;;;;;;;6306655;28;20056;-69
2023/08/16 05:56:05;;;;;;;20.38;15.02;;;;;;;;;;6303965;28;20040;-71
2023/08/16 05:59:07;;;;;;;17.45;14.77;;;;;;;;;;6306049;28;20040;-68
2023/08/16 06:02:09;;;;;;;20.00;15.85;;;;;;;;;;6311766;28;20105;-70
2023/08/16 06:05:11;;;;;;;17.45;14.77;;;;;;;;;;6301416;28;20093;-69
2023/08/16 06:08:13;;;;;;;18.08;15.40;;;;;;;;;;6309882;28;20048;-72
2023/08/16 06:11:16;;;;;;;16.95;13.73;;;;;;;;;;6291526;28;20048;-70
2023/08/16 06:14:18;;;;;;;17.80;12.90;;;;;;;;;;6308787;28;20540;-67
2023/08/16 06:17:20;;;;;;;19.10;13.60;;;;;;;;;;6307254;28;20040;-68
2023/08/16 06:20:23;;;;;;;18.25;12.45;;;;;;;;;;6309327;28;20582;-67
2023/08/16 06:23:25;;;;;;;16.50;13.45;;;;;;;;;;6311350;28;20435;-68
2023/08/16 06:26:28;;;;;;;19.77;11.93;;;;;;;;;;6310052;28;20071;-68
2023/08/16 06:29:30;;;;;;;19.65;12.73;;;;;;;;;;6300581;28;20036;-68
2023/08/16 06:32:32;;;;;;;15.75;11.85;;;;;;;;;;6295962;28;20112;-68
2023/08/16 06:35:34;;;;;;;12.90;10.13;;;;;;;;;;6306762;28;20064;-68
2023/08/16 06:38:36;;;;;;;16.98;11.25;;;;;;;;;;6305087;28;20059;-68
2023/08/16 06:41:39;;;;;;;14.77;10.23;;;;;;;;;;6303972;28;20522;-68
2023/08/16 06:44:44;;;;;;;13.80;11.18;;;;;;;;;;6290252;28;20131;-68
2023/08/16 06:47:47;;;;;;;13.38;11.15;;;;;;;;;;6308650;28;20041;-68
2023/08/16 06:50:50;;;;;;;13.95;10.55;;;;;;;;;;6309989;28;20044;-68
2023/08/16 06:53:52;;;;;;;14.40;9.98;;;;;;;;;;6290477;28;20071;-66
2023/08/16 06:56:57;;;;;;;;;;;;;;;;;;6308894;28;20062;-67
2023/08/16 07:00:00;;;;;;;13.73;9.50;;;;;;;;;;6309859;28;19924;-68
2023/08/16 07:03:02;;;;;;;10.68;8.60;;;;;;;;;;6303616;28;20101;-67
2023/08/16 07:06:04;;;;;;;12.30;9.15;;;;;;;;;;6308423;28;20538;-67
2023/08/16 07:09:06;;;;;;;11.77;9.88;;;;;;;;;;6308540;28;20447;-67
2023/08/16 07:12:09;;;;;;;11.23;8.10;;;;;;;;;;6309254;28;20071;-66
2023/08/16 07:15:12;;;;;;;12.32;10.48;;;;;;;;;;6308523;28;20044;-66
2023/08/16 07:18:14;;;;;;;14.80;8.57;;;;;;;;;;6310341;28;20051;-66
2023/08/16 07:21:18;;;;;;;11.57;9.00;;;;;;;;;;6315482;28;20048;-66
2023/08/16 07:24:20;;;;;;;10.80;9.38;;;;;;;;;;6309823;28;20759;-67
2023/08/16 07:27:22;;;;;;;12.20;8.68;;;;;;;;;;6311340;28;20139;-67
2023/08/16 07:30:25;;;;;;;12.07;8.90;;;;;;;;;;6310474;28;20194;-67
2023/08/16 07:33:30;;;;;;;13.35;9.77;;;;;;;;;;6310366;28;20043;-66
2023/08/16 07:36:33;;;;;;;11.48;7.82;;;;;;;;;;6310128;28;20534;-67
2023/08/16 07:39:36;;;;;;;14.63;8.13;;;;;;;;;;6307807;28;20040;-66
2023/08/16 07:42:38;;;;;;;10.30;8.40;;;;;;;;;;6310558;28;20047;-67
2023/08/16 07:45:40;;;;;;;12.73;8.38;;;;;;;;;;6307905;28;20503;-67
2023/08/16 07:48:42;;;;;;;12.57;8.77;;;;;;;;;;6310720;28;20044;-67
2023/08/16 07:51:45;;;;;;;10.18;7.53;;;;;;;;;;6310571;28;20036;-67
2023/08/16 07:54:47;;;;;;;12.25;6.82;;;;;;;;;;6309822;28;20158;-67
2023/08/16 07:57:50;;;;;;;10.57;7.93;;;;;;;;;;6310756;28;20059;-67
2023/08/16 08:00:53;;;;;;;10.57;7.90;;;;;;;;;;6292476;28;20044;-67
2023/08/16 08:03:55;;;;;;;10.75;9.63;;;;;;;;;;6311087;28;20056;-67
2023/08/16 08:06:57;;;;;;;11.85;9.00;;;;;;;;;;6294973;28;20055;-66
2023/08/16 08:09:59;;;;;;;12.52;8.38;;;;;;;;;;6310552;28;20048;-66
2023/08/16 08:13:02;;;;;;;14.23;8.07;;;;;;;;;;6310758;28;20518;-67
2023/08/16 08:16:04;;;;;;;11.13;8.15;;;;;;;;;;6311819;28;20056;-68
2023/08/16 08:19:06;;;;;;;10.65;7.93;;;;;;;;;;6315360;28;20040;-68
2023/08/16 08:22:09;;;;;;;10.23;7.85;;;;;;;;;;6314998;28;20047;-68
2023/08/16 08:25:12;;;;;;;11.60;8.60;;;;;;;;;;6314443;28;20134;-67
2023/08/16 08:28:14;;;;;;;12.25;8.45;;;;;;;;;;6315278;28;20129;-67
2023/08/16 08:31:16;;;;;;;10.48;8.35;;;;;;;;;;6314725;28;20048;-67
2023/08/16 08:34:18;;;;;;;11.32;7.80;;;;;;;;;;6314835;28;20185;-68
2023/08/16 08:37:21;;;;;;;9.00;7.75;;;;;;;;;;6314786;28;20694;-68
2023/08/16 08:40:24;;;;;;;13.77;8.45;;;;;;;;;;6313578;28;20377;-68
2023/08/16 08:43:36;;;;;;;12.90;8.15;;;;;;;;;;6315207;28;20048;-67
2023/08/16 08:46:59;;;;;;;11.07;8.18;;;;;;;;;;6315032;28;20055;-68
2023/08/16 08:50:12;;;;;;;9.18;7.20;;;;;;;;;;6312292;28;20075;-68
2023/08/16 08:53:14;;;;;;;11.32;7.03;;;;;;;;;;6312658;28;20747;-68
2023/08/16 08:56:18;;;;;;;9.90;6.90;;;;;;;;;;6314395;28;20044;-68
2023/08/16 08:59:20;;;;;;;10.27;7.18;;;;;;;;;;6291065;28;20100;-68
2023/08/16 09:02:23;;;;;;;10.73;7.05;;;;;;;;;;6293867;28;20046;-69
2023/08/16 09:05:26;;;;;;;13.48;7.53;;;;;;;;;;6285415;28;20119;-68
2023/08/16 09:08:28;;;;;;;14.32;8.00;;;;;;;;;;6310081;28;20058;-68
2023/08/16 09:11:31;;;;;;;9.20;7.53;;;;;;;;;;6296563;28;20036;-69
2023/08/16 09:14:33;;;;;;;10.55;7.43;;;;;;;;;;6311747;28;20466;-67
2023/08/16 09:17:35;;;;;;;13.00;7.38;;;;;;;;;;6311548;28;20071;-68
2023/08/16 09:20:38;;;;;;;10.88;7.13;;;;;;;;;;6305338;28;20415;-69
2023/08/16 09:23:41;;;;;;;10.27;7.15;;;;;;;;;;6305872;28;20048;-69
2023/08/16 09:26:44;;;;;;;11.00;7.25;;;;;;;;;;6310439;28;20059;-69
2023/08/16 09:29:46;;;;;;;9.88;7.32;;;;;;;;;;6312527;28;20186;-69
2023/08/16 09:32:49;;;;;;;10.98;7.72;;;;;;;;;;6312196;28;20193;-69
2023/08/16 09:35:52;;;;;;;12.45;7.80;;;;;;;;;;6313371;28;20067;-69
2023/08/16 09:39:10;;;;;;;10.38;7.78;;;;;;;;;;6308618;28;20051;-69
2023/08/16 09:42:13;;;;;;;11.43;7.85;;;;;;;;;;6313828;28;20092;-69
2023/08/16 09:45:15;;;;;;;11.93;7.43;;;;;;;;;;6313821;28;20047;-69
2023/08/16 09:48:24;;;;;;;13.90;7.75;;;;;;;;;;6311608;28;20256;-69
2023/08/16 09:51:27;;;;;;;12.82;7.70;;;;;;;;;;6311494;28;20036;-69
2023/08/16 09:54:33;;;;;;;10.30;6.65;;;;;;;;;;6302771;28;20415;-68
2023/08/16 09:57:35;;;;;;;9.90;7.20;;;;;;;;;;6312515;28;20100;-69
2023/08/16 10:00:40;;;;;;;14.38;7.65;;;;;;;;;;6313235;28;20125;-69
2023/08/16 10:03:42;;;;;;;11.95;8.73;;;;;;;;;;6311160;28;20048;-69
2023/08/16 10:07:00;;;;;;;11.50;7.22;;;;;;;;;;6288242;28;20068;-69
2023/08/16 10:10:12;;;;;;;11.77;7.50;;;;;;;;;;6306157;28;20130;-69
2023/08/16 10:13:15;;;;;;;11.57;7.50;;;;;;;;;;6307067;28;20048;-69
2023/08/16 10:16:19;;;;;;;9.75;7.15;;;;;;;;;;6295188;28;20047;-68
2023/08/16 10:19:23;;;;;;;9.60;6.70;;;;;;;;;;6295644;28;20526;-69
2023/08/16 10:22:32;;;;;;;12.38;7.30;;;;;;;;;;6304163;28;20049;-68
2023/08/16 10:25:46;;;;;;;10.98;6.57;;;;;;;;;;6309414;28;20777;-68
2023/08/16 10:29:09;;;;;;;13.55;7.90;;;;;;;;;;6306901;28;20056;-67
2023/08/16 10:32:16;;;;;;;10.18;7.55;;;;;;;;;;6286450;28;20043;-69
2023/08/16 10:35:18;;;;;;;10.55;6.93;;;;;;;;;;6287007;28;20048;-69
2023/08/16 10:38:20;;;;;;;9.25;7.15;;;;;;;;;;6306916;28;20081;-69
2023/08/16 10:41:23;;;;;;;10.43;7.53;;;;;;;;;;6291972;28;20570;-70
2023/08/16 10:44:26;;;;;;;12.65;7.85;;;;;;;;;;6304853;28;20047;-69
2023/08/16 10:47:31;;;;;;;12.55;7.10;;;;;;;;;;6309627;28;20039;-69
2023/08/16 10:50:34;;;;;;;11.50;6.80;;;;;;;;;;6296200;28;20511;-69
2023/08/16 10:53:37;;;;;;;11.43;6.72;;;;;;;;;;6310553;28;20157;-69
2023/08/16 10:56:47;;;;;;;8.95;7.30;;;;;;;;;;6310411;28;21314;-69
2023/08/16 11:00:01;;;;;;;12.45;6.65;;;;;;;;;;6310554;28;20250;-69
2023/08/16 11:03:06;;;;;;;8.90;6.97;;;;;;;;;;6306106;28;20059;-70
2023/08/16 11:06:13;;;;;;;12.00;7.75;;;;;;;;;;6308440;28;20044;-69
2023/08/16 11:09:15;;;;;;;10.88;7.25;;;;;;;;;;6307883;28;20074;-68
2023/08/16 11:12:17;;;;;;;16.67;7.47;;;;;;;;;;6310822;28;20044;-70
2023/08/16 11:15:23;;;;;;;11.82;8.00;;;;;;;;;;6301647;28;20423;-70
2023/08/16 11:18:33;;;;;;;17.10;7.25;;;;;;;;;;6310798;28;20048;-70
2023/08/16 11:21:37;;;;;;;9.18;7.55;;;;;;;;;;6305047;28;20048;-70
2023/08/16 11:24:39;;;;;;;9.65;7.80;;;;;;;;;;6311022;28;20522;-69
2023/08/16 11:27:41;;;;;;;15.98;8.45;;;;;;;;;;6312000;28;20044;-70
2023/08/16 11:30:43;;;;;;;12.63;7.90;;;;;;;;;;6311833;28;20082;-70
2023/08/16 11:33:45;;;;;;;10.55;8.27;;;;;;;;;;6298374;28;20047;-70
2023/08/16 11:36:48;;;;;;;9.60;7.43;;;;;;;;;;6312043;28;20201;-70
2023/08/16 11:40:00;;;;;;;9.57;8.55;;;;;;;;;;6311682;28;20454;-70
2023/08/16 11:43:05;;;;;;;9.75;7.50;;;;;;;;;;6326896;28;20028;-71
2023/08/16 11:46:08;;;;;;;11.82;7.90;;;;;;;;;;6302829;28;20052;-71
2023/08/16 11:49:12;;;;;;;11.68;8.15;;;;;;;;;;6293055;28;20047;-70
2023/08/16 11:52:25;;;;;;;10.73;7.85;;;;;;;;;;6303456;28;20048;-70
2023/08/16 11:55:29;;;;;;;11.88;8.43;;;;;;;;;;6322262;28;20054;-70
2023/08/16 11:58:45;;;;;;;10.65;7.60;;;;;;;;;;6316901;28;20139;-70
2023/08/16 12:01:49;;;;;;;10.80;8.13;;;;;;;;;;6314320;28;20044;-70
2023/08/16 12:04:52;;;;;;;10.45;8.43;;;;;;;;;;6300117;28;20090;-70
2023/08/16 12:07:56;;;;;;;12.88;8.80;;;;;;;;;;6306897;28;20094;-70
2023/08/16 12:10:58;;;;;;;9.68;7.93;;;;;;;;;;6315225;28;20036;-70
2023/08/16 12:14:02;;;;;;;13.50;7.22;;;;;;;;;;6315849;28;20531;-71
2023/08/16 12:17:08;;;;;;;10.45;8.07;;;;;;;;;;6315626;28;20135;-71
2023/08/16 12:20:10;;;;;;;10.27;7.80;;;;;;;;;;6307680;28;20044;-71
2023/08/16 12:23:12;;;;;;;13.80;7.43;;;;;;;;;;6306074;28;20037;-71
2023/08/16 12:26:15;;;;;;;10.30;6.75;;;;;;;;;;6311879;28;20040;-71
2023/08/16 12:29:17;;;;;;;9.23;7.47;;;;;;;;;;6313829;28;20059;-71
2023/08/16 12:32:21;;;;;;;11.52;6.88;;;;;;;;;;6313569;28;20170;-71
2023/08/16 12:35:23;;;;;;;8.77;5.90;;;;;;;;;;6313979;28;20055;-72
2023/08/16 12:38:26;;;;;;;9.82;6.68;;;;;;;;;;6297232;28;20071;-72
2023/08/16 12:41:29;;;;;;;10.05;6.63;;;;;;;;;;6312965;28;20036;-70
2023/08/16 12:44:31;;;;;;;10.05;6.63;;;;;;;;;;6308419;28;20121;-71
2023/08/16 12:47:34;;;;;;;10.65;7.10;;;;;;;;;;6311580;28;20051;-72
2023/08/16 12:50:36;;;;;;;10.27;6.78;;;;;;;;;;6313359;28;20772;-71
2023/08/16 12:53:38;;;;;;;10.25;6.78;;;;;;;;;;6314031;28;20058;-72
2023/08/16 12:56:41;;;;;;;9.93;6.15;;;;;;;;;;6328453;27;20051;-71
2023/08/16 12:59:48;;;;;;;12.50;7.75;;;;;;;;;;6314160;28;20127;-72
2023/08/16 13:02:55;;;;;;;9.32;7.22;;;;;;;;;;6310655;28;20040;-72
2023/08/16 13:05:58;;;;;;;11.52;7.30;;;;;;;;;;6313887;28;20125;-72
2023/08/16 13:09:09;;;;;;;9.52;5.95;;;;;;;;;;6296642;28;20048;-72
2023/08/16 13:12:27;;;;;;;12.73;6.78;;;;;;;;;;6312638;28;20048;-72
2023/08/16 13:15:33;;;;;;;11.00;6.78;;;;;;;;;;6312660;28;20575;-72
2023/08/16 13:18:41;;;;;;;9.32;6.53;;;;;;;;;;6309306;28;20044;-72
2023/08/16 13:21:47;;;;;;;7.40;5.85;;;;;;;;;;6313149;28;20127;-72
2023/08/16 13:24:53;;;;;;;11.18;6.55;;;;;;;;;;6310873;28;20763;-72
2023/08/16 13:27:58;;;;;;;7.82;6.20;;;;;;;;;;6312797;28;20040;-72
2023/08/16 13:31:06;;;;;;;8.43;6.20;;;;;;;;;;6298955;28;20148;-72
2023/08/16 13:34:23;;;;;;;14.45;7.13;;;;;;;;;;6294910;28;20051;-72
2023/08/16 13:37:28;;;;;;;11.40;5.70;;;;;;;;;;6312425;28;20028;-72
2023/08/16 13:40:51;;;;;;;10.23;7.63;;;;;;;;;;6329299;27;20048;-72
2023/08/16 13:43:54;;;;;;;10.98;6.88;;;;;;;;;;6290934;28;20040;-72
2023/08/16 13:47:16;;;;;;;8.70;6.78;;;;;;;;;;6310078;28;20108;-72
2023/08/16 13:50:19;;;;;;;7.45;6.63;;;;;;;;;;6311056;28;20052;-72
2023/08/16 13:53:21;;;;;;;9.50;7.05;;;;;;;;;;6297162;28;20601;-70
2023/08/16 13:56:26;;;;;;;9.95;7.00;;;;;;;;;;6312502;28;20044;-70
2023/08/16 13:59:39;;;;;;;9.70;6.97;;;;;;;;;;6312473;28;20040;-70
2023/08/16 14:02:41;;;;;;;11.65;8.05;;;;;;;;;;6311642;28;20116;-69
2023/08/16 14:05:43;;;;;;;8.05;6.55;;;;;;;;;;6307686;28;20067;-69
2023/08/16 14:08:45;;;;;;;12.05;7.80;;;;;;;;;;6306293;28;20063;-69
2023/08/16 14:11:47;;;;;;;9.52;7.32;;;;;;;;;;6308404;28;20066;-69
2023/08/16 14:14:49;;;;;;;11.73;6.90;;;;;;;;;;6307906;28;20076;-70
2023/08/16 14:17:52;;;;;;;14.00;7.53;;;;;;;;;;6305930;28;20051;-70
2023/08/16 14:20:54;;;;;;;8.60;6.82;;;;;;;;;;6306354;28;20124;-70
2023/08/16 14:23:56;;;;;;;28.00;16.45;;;;;;;;;;6311587;28;20517;-70
2023/08/16 14:26:59;;;;;;;15.80;9.20;;;;;;;;;;6311642;28;20040;-70
2023/08/16 14:30:01;;;;;;;9.93;6.25;;;;;;;;;;6309325;28;20043;-70
2023/08/16 14:33:03;;;;;;;12.85;7.38;;;;;;;;;;6307174;28;20509;-70
2023/08/16 14:36:05;;;;;;;9.45;6.80;;;;;;;;;;6309640;28;20040;-70
2023/08/16 14:39:08;;;;;;;11.32;6.32;;;;;;;;;;6308845;28;20173;-70
2023/08/16 14:42:10;;;;;;;9.02;6.93;;;;;;;;;;6300715;28;20048;-69
2023/08/16 14:45:12;;;;;;;11.00;7.15;;;;;;;;;;6301908;28;20556;-71
2023/08/16 14:48:14;;;;;;;9.02;6.55;;;;;;;;;;6311057;28;20138;-71
2023/08/16 14:51:16;;;;;;;20.10;7.30;;;;;;;;;;6302676;28;20526;-71
2023/08/16 14:54:19;;;;;;;12.10;7.05;;;;;;;;;;6311340;28;20032;-73
2023/08/16 14:57:21;;;;;;;9.68;6.40;;;;;;;;;;6307023;28;20052;-72
2023/08/16 15:00:23;;;;;;;10.35;5.95;;;;;;;;;;6311414;28;20071;-71
2023/08/16 15:03:26;;;;;;;8.15;6.10;;;;;;;;;;6311580;28;20050;-71
2023/08/16 15:06:28;;;;;;;13.63;8.48;;;;;;;;;;6311752;28;20048;-72
2023/08/16 15:09:31;;;;;;;9.60;6.07;;;;;;;;;;6311763;28;20039;-72
2023/08/16 15:12:34;;;;;;;12.20;6.47;;;;;;;;;;6302074;28;20051;-72
2023/08/16 15:15:36;;;;;;;10.70;6.60;;;;;;;;;;6311148;28;20123;-70
2023/08/16 15:18:38;;;;;;;11.18;7.38;;;;;;;;;;6307161;28;20052;-72
2023/08/16 15:21:43;;;;;;;9.77;6.82;;;;;;;;;;6302408;28;20079;-71
2023/08/16 15:24:49;;;;;;;9.52;6.60;;;;;;;;;;6312067;28;20059;-71
2023/08/16 15:27:51;;;;;;;11.55;6.03;;;;;;;;;;6311756;28;20144;-72
2023/08/16 15:30:56;;;;;;;8.02;6.20;;;;;;;;;;6311622;28;20044;-71
2023/08/16 15:33:58;;;;;;;10.13;6.50;;;;;;;;;;6301808;28;20044;-72
2023/08/16 15:37:00;;;;;;;13.00;7.82;;;;;;;;;;6309495;28;20048;-71
2023/08/16 15:40:04;;;;;;;11.88;6.10;;;;;;;;;;6310455;28;20194;-70
2023/08/16 15:43:06;;;;;;;11.63;6.07;;;;;;;;;;6305246;28;20064;-72
2023/08/16 15:46:11;;;;;;;8.52;6.65;;;;;;;;;;6310337;28;20564;-71
2023/08/16 15:49:13;;;;;;;10.32;6.75;;;;;;;;;;6300236;28;20047;-72
2023/08/16 15:52:15;;;;;;;13.55;7.13;;;;;;;;;;6305682;28;20052;-71
2023/08/16 15:55:17;;;;;;;8.63;6.00;;;;;;;;;;6307954;28;20047;-71
2023/08/16 15:58:21;;;;;;;9.07;6.88;;;;;;;;;;6304781;28;20177;-70
2023/08/16 16:01:23;;;;;;;11.25;5.82;;;;;;;;;;6308728;28;20040;-72
2023/08/16 16:04:28;;;;;;;10.40;6.18;;;;;;;;;;6294616;28;20044;-71
2023/08/16 16:07:31;;;;;;;11.20;5.97;;;;;;;;;;6310114;28;20055;-72
2023/08/16 16:10:33;;;;;;;8.90;6.22;;;;;;;;;;6291252;28;20047;-71
2023/08/16 16:13:35;;;;;;;7.97;5.60;;;;;;;;;;6300392;28;20169;-69
2023/08/16 16:16:45;;;;;;;10.05;5.80;;;;;;;;;;6310360;28;20118;-70
2023/08/16 16:19:47;;;;;;;10.70;6.40;;;;;;;;;;6305054;28;20043;-70
2023/08/16 16:22:53;;;;;;;14.93;6.97;;;;;;;;;;6310927;28;20052;-70
2023/08/16 16:25:56;;;;;;;14.93;6.57;;;;;;;;;;6300267;28;20616;-70
2023/08/16 16:28:58;;;;;;;10.40;7.50;;;;;;;;;;6309626;28;20048;-70
2023/08/16 16:32:02;;;;;;;9.15;6.05;;;;;;;;;;6306281;28;20051;-70
2023/08/16 16:35:06;;;;;;;12.52;7.00;;;;;;;;;;6308735;28;20538;-70
2023/08/16 16:38:08;;;;;;;9.30;6.20;;;;;;;;;;6313317;28;20580;-70
2023/08/16 16:41:10;;;;;;;14.60;7.32;;;;;;;;;;6314379;28;20059;-69
2023/08/16 16:44:13;;;;;;;12.27;6.85;;;;;;;;;;6314826;28;20055;-69
2023/08/16 16:47:15;;;;;;;11.80;7.13;;;;;;;;;;6311118;28;20060;-69
2023/08/16 16:50:21;;;;;;;13.52;6.70;;;;;;;;;;6313404;28;20067;-68
2023/08/16 16:53:23;;;;;;;10.40;7.53;;;;;;;;;;6311584;28;20051;-69
2023/08/16 16:56:25;;;;;;;12.35;6.80;;;;;;;;;;6313126;28;20044;-71
2023/08/16 16:59:27;;;;;;;10.93;7.13;;;;;;;;;;6314954;28;20038;-70
2023/08/16 17:02:29;;;;;;;8.43;7.53;;;;;;;;;;6308654;28;20051;-70
2023/08/16 17:05:31;;;;;;;8.95;6.93;;;;;;;;;;6315033;28;20170;-70
2023/08/16 17:08:34;;;;;;;10.98;8.25;;;;;;;;;;6300462;28;20115;-68
2023/08/16 17:11:37;;;;;;;10.77;7.90;;;;;;;;;;6316612;28;20105;-68
2023/08/16 17:14:39;;;;;;;9.00;6.95;;;;;;;;;;6315722;28;20048;-68
2023/08/16 17:17:41;;;;;;;12.10;7.68;;;;;;;;;;6316495;28;20442;-68
2023/08/16 17:20:43;;;;;;;14.43;8.68;;;;;;;;;;6315250;28;20573;-68
2023/08/16 17:23:45;;;;;;;13.77;7.93;;;;;;;;;;6315056;28;20055;-69
2023/08/16 17:26:47;;;;;;;11.98;8.27;;;;;;;;;;6314973;28;20056;-69
2023/08/16 17:29:49;;;;;;;11.00;7.53;;;;;;;;;;6295201;28;20055;-69
2023/08/16 17:32:52;;;;;;;10.70;7.05;;;;;;;;;;6311603;28;20082;-69
2023/08/16 17:35:55;;;;;;;10.65;7.53;;;;;;;;;;6308613;28;20518;-70
2023/08/16 17:38:57;;;;;;;13.35;8.20;;;;;;;;;;6313772;28;20051;-70
2023/08/16 17:41:59;;;;;;;12.82;10.18;;;;;;;;;;6310949;28;20058;-70
2023/08/16 17:45:03;;;;;;;10.60;8.13;;;;;;;;;;6308540;28;20052;-71
2023/08/16 17:48:05;;;;;;;13.50;9.27;;;;;;;;;;6308883;28;20043;-71
2023/08/16 17:51:08;;;;;;;14.23;8.63;;;;;;;;;;6313772;28;20055;-71
2023/08/16 17:54:10;;;;;;;13.35;8.38;;;;;;;;;;6312533;28;20723;-71
2023/08/16 17:57:13;;;;;;;15.85;8.70;;;;;;;;;;6310361;28;20052;-70
2023/08/16 18:00:16;;;;;;;11.90;8.27;;;;;;;;;;6311115;28;20048;-70
2023/08/16 18:03:19;;;;;;;11.27;8.10;;;;;;;;;;6307640;28;20058;-71
2023/08/16 18:06:22;;;;;;;12.40;9.13;;;;;;;;;;6312568;28;20051;-69
2023/08/16 18:09:25;;;;;;;12.15;8.82;;;;;;;;;;6306266;28;20095;-69
2023/08/16 18:12:27;;;;;;;12.65;10.63;;;;;;;;;;6308402;28;20120;-69
2023/08/16 18:15:29;;;;;;;14.50;9.35;;;;;;;;;;6307042;28;20063;-69